Time;durP1;ratioP1;P1;durP2;ratioP2;P2;SDS_P1;SDS_P2;PMS_P1;PMS_P2;Temp;Humidity;BMP_temperature;BMP_pressure;BME280_temperature;BME280_humidity;BME280_pressure;Samples;Min_cycle;Max_cycle;Signal;HPM_P1;HPM_P2
2024/02/22 00:00:00;;;;;;;8.02;5.88;;;5.60;57.60;;;;;;5074369;28;20098;-72
2024/02/22 00:05:12;;;;;;;10.68;5.80;;;5.60;57.40;;;;;;5072920;28;19916;-70
2024/02/22 00:07:38;;;;;;;8.32;4.85;;;5.70;57.40;;;;;;5073482;28;20040;-70
2024/02/22 00:10:06;;;;;;;4.68;2.72;;;5.60;57.50;;;;;;5072442;28;20032;-70
2024/02/22 00:12:37;;;;;;;3.72;1.83;;;5.60;57.50;;;;;;5072933;28;20028;-70
2024/02/22 00:15:04;;;;;;;4.75;2.97;;;5.60;57.50;;;;;;5074182;28;20029;-70
2024/02/22 00:17:31;;;;;;;6.20;2.80;;;5.60;57.50;;;;;;5072638;28;20029;-71
2024/02/22 00:19:57;;;;;;;6.50;2.83;;;5.60;57.80;;;;;;5074414;28;20446;-73
2024/02/22 00:22:23;;;;;;;6.90;2.72;;;5.50;58.00;;;;;;5073589;28;20024;-73
2024/02/22 00:24:49;;;;;;;;;;;5.50;58.10;;;;;;5074465;28;20041;-71
2024/02/22 00:27:15;;;;;;;15.77;2.60;;;5.50;58.20;;;;;;5073760;28;19923;-73
2024/02/22 00:29:41;;;;;;;5.85;3.33;;;5.50;58.30;;;;;;5073785;28;20432;-70
2024/02/22 00:32:09;;;;;;;5.13;3.00;;;5.50;58.20;;;;;;5072086;28;20033;-70
2024/02/22 00:34:35;;;;;;;4.00;2.08;;;5.50;58.20;;;;;;5072830;28;20033;-71
2024/02/22 00:37:01;;;;;;;3.53;1.70;;;5.40;58.60;;;;;;5074373;28;20066;-70
2024/02/22 00:39:27;;;;;;;5.03;2.58;;;5.50;58.50;;;;;;5073985;28;20494;-70
2024/02/22 00:41:53;;;;;;;2.50;1.45;;;5.50;58.50;;;;;;5072269;28;20055;-71
2024/02/22 00:44:19;;;;;;;2.92;1.52;;;5.50;58.30;;;;;;5072599;28;20051;-70
2024/02/22 00:46:46;;;;;;;5.97;1.98;;;5.50;58.40;;;;;;5073694;28;20037;-73
2024/02/22 00:49:12;;;;;;;4.82;2.65;;;5.60;58.40;;;;;;5073746;28;20067;-71
2024/02/22 00:51:38;;;;;;;3.67;1.42;;;5.50;58.70;;;;;;5073544;28;20412;-73
2024/02/22 00:54:04;;;;;;;3.55;2.28;;;5.50;58.60;;;;;;5073843;28;20044;-70
2024/02/22 00:56:30;;;;;;;2.90;1.35;;;5.50;58.70;;;;;;5073441;28;20040;-73
2024/02/22 00:58:56;;;;;;;3.60;2.00;;;5.50;59.10;;;;;;5072277;28;20359;-73
2024/02/22 01:01:22;;;;;;;3.78;1.52;;;5.50;59.50;;;;;;5073141;28;20033;-71
2024/02/22 01:03:48;;;;;;;3.95;1.65;;;5.50;59.50;;;;;;5072111;28;20053;-70
2024/02/22 01:06:15;;;;;;;4.13;1.42;;;5.50;59.20;;;;;;5071821;28;20398;-73
2024/02/22 01:08:41;;;;;;;4.07;1.83;;;5.30;59.40;;;;;;5072186;28;20114;-73
2024/02/22 01:11:07;;;;;;;3.30;1.92;;;5.40;59.70;;;;;;5072526;28;20037;-70
2024/02/22 01:13:33;;;;;;;1.42;0.82;;;5.40;59.50;;;;;;5073552;28;20056;-71
2024/02/22 01:15:59;;;;;;;10.82;2.15;;;5.40;60.10;;;;;;5073190;28;20037;-71
2024/02/22 01:18:25;;;;;;;2.88;1.55;;;5.50;59.50;;;;;;5072868;28;20554;-70
2024/02/22 01:20:51;;;;;;;3.45;2.05;;;5.50;59.50;;;;;;5071065;28;20505;-70
2024/02/22 01:23:17;;;;;;;7.50;2.38;;;5.60;59.50;;;;;;5071895;28;20500;-70
2024/02/22 01:25:43;;;;;;;3.50;1.48;;;5.60;59.90;;;;;;5071965;28;20036;-71
2024/02/22 01:28:12;;;;;;;4.10;2.97;;;5.60;59.80;;;;;;5071857;28;20449;-73
2024/02/22 01:30:39;;;;;;;3.70;1.83;;;5.60;59.50;;;;;;5071010;28;20037;-70
2024/02/22 01:33:05;;;;;;;4.00;2.03;;;5.60;59.20;;;;;;5073238;28;20120;-73
2024/02/22 01:35:31;;;;;;;;;;;5.70;59.30;;;;;;5072091;28;20498;-73
2024/02/22 01:37:57;;;;;;;5.38;2.67;;;5.70;59.60;;;;;;5071719;28;19927;-70
2024/02/22 01:40:23;;;;;;;5.30;2.33;;;5.60;59.60;;;;;;5070925;28;20040;-72
2024/02/22 01:42:50;;;;;;;3.63;2.90;;;5.60;59.60;;;;;;5071404;28;20037;-73
2024/02/22 01:45:16;;;;;;;1.55;1.27;;;5.60;59.40;;;;;;5072391;28;20397;-71
2024/02/22 01:47:42;;;;;;;5.00;2.65;;;5.60;59.70;;;;;;5071494;28;20550;-73
2024/02/22 01:50:10;;;;;;;5.72;2.53;;;5.60;59.50;;;;;;5070784;28;20039;-73
2024/02/22 01:52:37;;;;;;;7.53;4.68;;;5.60;59.50;;;;;;5054714;28;20070;-73
2024/02/22 01:55:09;;;;;;;6.15;2.47;;;5.60;59.10;;;;;;5070798;28;20029;-70
2024/02/22 01:57:35;;;;;;;5.93;2.40;;;5.60;59.70;;;;;;5071116;28;20102;-73
2024/02/22 02:00:15;;;;;;;5.68;2.10;;;5.50;59.90;;;;;;5070736;28;20028;-72
2024/02/22 02:02:42;;;;;;;5.68;2.25;;;5.50;59.30;;;;;;5072071;28;20056;-70
2024/02/22 02:05:08;;;;;;;4.22;2.05;;;5.60;59.70;;;;;;5070457;28;20049;-70
2024/02/22 02:07:53;;;;;;;6.55;4.18;;;5.50;59.80;;;;;;5072110;28;20470;-73
2024/02/22 02:10:19;;;;;;;7.40;4.93;;;5.50;60.00;;;;;;5053105;28;20047;-70
2024/02/22 02:12:45;;;;;;;4.50;2.55;;;5.40;60.20;;;;;;5070717;28;20033;-71
2024/02/22 02:15:11;;;;;;;12.45;4.68;;;5.50;60.20;;;;;;5070563;28;20045;-70
2024/02/22 02:17:38;;;;;;;6.00;3.33;;;5.50;60.30;;;;;;5069796;28;20036;-70
2024/02/22 02:20:05;;;;;;;6.00;3.40;;;5.50;59.90;;;;;;5069933;28;20143;-73
2024/02/22 02:23:27;;;;;;;10.63;3.97;;;5.40;59.90;;;;;;5070491;28;20056;-70
2024/02/22 02:25:53;;;;;;;7.05;4.10;;;5.40;60.00;;;;;;5071395;28;20186;-70
2024/02/22 02:28:20;;;;;;;9.15;4.28;;;5.40;60.20;;;;;;5071999;28;20420;-73
2024/02/22 02:30:46;;;;;;;7.45;5.35;;;5.50;59.60;;;;;;5070996;28;20501;-70
2024/02/22 02:33:12;;;;;;;6.30;4.00;;;5.40;60.00;;;;;;5070184;28;20063;-73
2024/02/22 02:35:38;;;;;;;7.18;4.82;;;5.40;60.10;;;;;;5071485;28;20033;-71
2024/02/22 02:38:24;;;;;;;8.60;4.10;;;5.40;60.20;;;;;;5070179;28;20106;-73
2024/02/22 02:40:50;;;;;;;7.30;4.43;;;5.50;60.40;;;;;;5071082;28;20060;-73
2024/02/22 02:43:16;;;;;;;4.53;2.58;;;5.40;60.50;;;;;;5072029;28;20444;-73
2024/02/22 02:45:42;;;;;;;5.50;3.47;;;5.30;60.60;;;;;;5071385;28;20048;-72
2024/02/22 02:48:08;;;;;;;9.30;5.28;;;5.30;60.80;;;;;;5070285;28;20033;-70
2024/02/22 02:50:34;;;;;;;10.75;4.43;;;5.30;60.60;;;;;;5069382;28;20039;-70
2024/02/22 02:53:00;;;;;;;5.95;3.90;;;5.20;61.00;;;;;;5070235;28;20036;-71
2024/02/22 02:55:26;;;;;;;5.05;3.30;;;5.20;60.80;;;;;;5071334;28;20044;-70
2024/02/22 02:57:54;;;;;;;6.45;2.35;;;5.20;60.80;;;;;;5071308;28;20043;-73
2024/02/22 03:00:20;;;;;;;9.40;4.65;;;5.20;60.60;;;;;;5069574;28;20436;-71
2024/02/22 03:02:46;;;;;;;6.68;3.72;;;5.20;60.70;;;;;;5070399;28;20040;-73
2024/02/22 03:05:12;;;;;;;4.47;2.58;;;5.10;60.70;;;;;;5071454;28;20047;-73
2024/02/22 03:07:38;;;;;;;12.75;4.68;;;5.10;60.80;;;;;;5071673;28;20045;-71
2024/02/22 03:10:05;;;;;;;6.82;3.13;;;5.10;60.80;;;;;;5052639;28;20497;-73
2024/02/22 03:12:32;;;;;;;5.05;3.20;;;5.00;60.60;;;;;;5070082;28;20033;-70
2024/02/22 03:15:00;;;;;;;5.80;3.88;;;5.00;60.70;;;;;;5069657;28;20036;-70
2024/02/22 03:17:26;;;;;;;9.45;3.53;;;5.00;60.90;;;;;;5069955;28;20028;-70
2024/02/22 03:19:52;;;;;;;8.23;3.58;;;4.90;60.70;;;;;;5071133;28;20037;-72
2024/02/22 03:22:19;;;;;;;6.05;4.13;;;5.00;61.00;;;;;;5069168;28;20032;-71
2024/02/22 03:24:45;;;;;;;;;;;4.90;61.10;;;;;;5070361;28;20041;-70
2024/02/22 03:27:12;;;;;;;12.50;4.57;;;4.90;61.00;;;;;;5053047;28;19950;-73
2024/02/22 03:29:39;;;;;;;6.22;3.95;;;4.80;60.10;;;;;;5073192;28;20025;-71
2024/02/22 03:32:05;;;;;;;7.90;3.67;;;4.90;61.00;;;;;;5073456;28;20186;-73
2024/02/22 03:34:50;;;;;;;4.60;2.50;;;4.90;60.70;;;;;;5074705;28;20033;-73
2024/02/22 03:37:17;;;;;;;3.65;2.30;;;4.90;61.20;;;;;;5075069;28;20153;-73
2024/02/22 03:39:49;;;;;;;6.70;2.97;;;4.80;60.70;;;;;;5073753;28;20029;-70
2024/02/22 03:42:17;;;;;;;3.80;2.40;;;4.80;61.00;;;;;;5074557;28;20067;-70
2024/02/22 03:44:43;;;;;;;2.47;1.88;;;4.80;61.00;;;;;;5073424;28;20046;-70
2024/02/22 03:47:09;;;;;;;;;;;4.80;61.00;;;;;;5073934;28;20447;-71
2024/02/22 03:49:35;;;;;;;6.82;3.63;;;4.70;61.40;;;;;;5073438;28;19916;-73
2024/02/22 03:52:01;;;;;;;2.45;1.35;;;4.70;61.60;;;;;;5072828;28;20137;-73
2024/02/22 03:54:27;;;;;;;4.40;1.98;;;4.70;61.50;;;;;;5074383;28;20401;-70
2024/02/22 03:56:54;;;;;;;6.72;2.75;;;4.70;61.60;;;;;;5074769;28;20044;-70
2024/02/22 03:59:20;;;;;;;4.50;2.45;;;4.80;61.60;;;;;;5074282;28;20031;-73
2024/02/22 04:01:46;;;;;;;4.13;2.92;;;4.80;61.40;;;;;;5072633;28;20363;-70
2024/02/22 04:04:12;;;;;;;6.90;3.47;;;4.90;61.40;;;;;;5074145;28;20048;-73
2024/02/22 04:06:38;;;;;;;5.50;2.53;;;4.90;61.40;;;;;;5073420;28;20036;-70
2024/02/22 04:09:05;;;;;;;6.28;3.85;;;4.90;61.30;;;;;;5056238;28;20819;-73
2024/02/22 04:11:31;;;;;;;3.05;1.25;;;4.90;61.40;;;;;;5073567;28;20037;-72
2024/02/22 04:13:57;;;;;;;6.07;2.80;;;4.90;61.50;;;;;;5074001;28;20037;-71
2024/02/22 04:16:23;;;;;;;5.93;3.10;;;4.90;61.40;;;;;;5072770;28;20032;-71
2024/02/22 04:18:50;;;;;;;6.90;2.53;;;5.00;61.50;;;;;;5072783;28;20032;-70
2024/02/22 04:21:16;;;;;;;3.90;2.53;;;5.00;61.60;;;;;;5072023;28;20376;-70
2024/02/22 04:23:42;;;;;;;3.95;2.45;;;5.00;61.60;;;;;;5073942;28;20032;-70
2024/02/22 04:26:08;;;;;;;5.93;2.08;;;5.10;61.60;;;;;;5072554;28;20375;-73
2024/02/22 04:28:34;;;;;;;8.32;3.03;;;5.10;61.60;;;;;;5074148;28;20040;-73
2024/02/22 04:31:03;;;;;;;6.25;3.25;;;5.20;61.50;;;;;;5072236;28;20033;-73
2024/02/22 04:33:31;;;;;;;4.78;3.03;;;5.20;61.50;;;;;;5072608;28;20037;-73
2024/02/22 04:35:57;;;;;;;5.95;2.83;;;5.20;61.30;;;;;;5072526;28;20036;-70
2024/02/22 04:38:23;;;;;;;9.95;2.72;;;5.20;61.70;;;;;;5074003;28;20040;-71
2024/02/22 04:40:49;;;;;;;5.90;3.20;;;5.30;61.40;;;;;;5072410;28;20481;-71
2024/02/22 04:43:15;;;;;;;5.45;2.08;;;5.40;61.70;;;;;;5074114;28;20044;-73
2024/02/22 04:45:41;;;;;;;4.20;2.47;;;5.30;62.20;;;;;;5073518;28;20460;-74
2024/02/22 04:48:08;;;;;;;2.13;1.30;;;5.40;61.70;;;;;;5073807;28;20048;-73
2024/02/22 04:50:35;;;;;;;5.00;2.42;;;5.40;61.50;;;;;;5071661;28;20497;-72
2024/02/22 04:53:05;;;;;;;4.65;2.58;;;5.40;61.00;;;;;;5072393;28;20060;-73
2024/02/22 04:58:17;;;;;;;3.80;2.57;;;5.50;60.50;;;;;;5072305;28;20037;-72
2024/02/22 05:00:45;;;;;;;8.98;3.20;;;5.50;61.30;;;;;;5071647;28;20437;-70
2024/02/22 05:03:12;;;;;;;4.05;2.50;;;5.50;61.40;;;;;;5073228;28;20049;-73
2024/02/22 05:05:40;;;;;;;8.52;3.65;;;5.50;61.40;;;;;;5071971;28;20039;-73
2024/02/22 05:08:06;;;;;;;6.68;3.00;;;5.50;61.50;;;;;;5071972;28;20043;-73
2024/02/22 05:10:34;;;;;;;7.05;3.20;;;5.50;61.10;;;;;;5071358;28;20543;-70
2024/02/22 05:13:00;;;;;;;6.65;3.63;;;5.50;61.60;;;;;;5073411;28;20055;-70
2024/02/22 05:15:26;;;;;;;7.10;2.63;;;5.50;61.80;;;;;;5071964;28;20058;-73
2024/02/22 05:17:52;;;;;;;5.22;2.13;;;5.50;61.70;;;;;;5071759;28;20045;-71
2024/02/22 05:20:18;;;;;;;5.22;3.47;;;5.40;61.80;;;;;;5071038;28;20108;-73
2024/02/22 05:22:44;;;;;;;6.03;3.05;;;5.40;61.90;;;;;;5071864;28;20099;-73
2024/02/22 05:25:10;;;;;;;4.20;2.30;;;5.40;61.70;;;;;;5071501;28;20493;-71
2024/02/22 05:27:36;;;;;;;4.68;3.17;;;5.50;61.60;;;;;;5071550;28;20040;-70
2024/02/22 05:30:03;;;;;;;5.88;2.72;;;5.50;61.70;;;;;;5071125;28;20444;-70
2024/02/22 05:32:31;;;;;;;6.05;3.92;;;5.50;61.20;;;;;;5072604;28;20048;-73
2024/02/22 05:34:57;;;;;;;7.13;4.20;;;5.50;61.50;;;;;;5071197;28;20047;-70
2024/02/22 05:37:23;;;;;;;6.35;2.28;;;5.50;61.60;;;;;;5071425;28;20032;-73
2024/02/22 05:39:49;;;;;;;7.13;3.20;;;5.60;61.70;;;;;;5072376;28;20037;-73
2024/02/22 05:42:15;;;;;;;3.08;2.15;;;5.60;61.70;;;;;;5071949;28;20048;-73
2024/02/22 05:44:41;;;;;;;4.85;2.58;;;5.60;62.10;;;;;;5071101;28;20033;-73
2024/02/22 05:47:07;;;;;;;13.48;3.78;;;5.60;62.40;;;;;;5072657;28;20047;-70
2024/02/22 05:49:33;;;;;;;10.48;4.32;;;5.60;62.20;;;;;;5071133;28;20031;-71
2024/02/22 05:51:59;;;;;;;6.00;3.60;;;5.60;62.10;;;;;;5071631;28;20041;-73
2024/02/22 05:54:25;;;;;;;6.72;3.42;;;5.70;62.10;;;;;;5070785;28;20035;-73
2024/02/22 05:56:51;;;;;;;9.10;3.60;;;5.70;62.00;;;;;;5070918;28;20075;-71
2024/02/22 05:59:17;;;;;;;3.15;2.38;;;5.70;61.90;;;;;;5054040;28;20021;-70
2024/02/22 06:01:43;;;;;;;5.05;3.10;;;5.70;62.30;;;;;;5070492;28;20106;-73
2024/02/22 06:04:09;;;;;;;7.10;2.65;;;5.70;62.30;;;;;;5070562;28;20051;-70
2024/02/22 06:06:35;;;;;;;3.70;1.52;;;5.80;62.00;;;;;;5070754;28;20037;-73
2024/02/22 06:09:02;;;;;;;7.90;4.20;;;5.80;61.70;;;;;;5071836;28;20029;-70
2024/02/22 06:11:28;;;;;;;9.35;3.88;;;5.90;61.90;;;;;;5071158;28;20040;-73
2024/02/22 06:13:54;;;;;;;5.30;1.95;;;5.80;61.80;;;;;;5070479;28;20039;-70
2024/02/22 06:16:20;;;;;;;3.70;2.28;;;5.90;61.70;;;;;;5070650;28;20409;-73
2024/02/22 06:18:46;;;;;;;5.65;3.80;;;5.90;62.40;;;;;;5071662;28;20037;-70
2024/02/22 06:21:12;;;;;;;4.90;2.67;;;6.00;61.60;;;;;;5069902;28;20048;-70
2024/02/22 06:23:39;;;;;;;9.20;3.15;;;6.00;61.20;;;;;;5070823;28;20082;-73
2024/02/22 06:26:05;;;;;;;7.47;2.65;;;6.10;61.10;;;;;;5072056;28;20366;-73
2024/02/22 06:28:33;;;;;;;4.47;2.97;;;6.20;60.90;;;;;;5071943;28;20028;-70
2024/02/22 06:31:00;;;;;;;4.13;2.03;;;6.20;60.80;;;;;;5069577;28;20040;-70
2024/02/22 06:33:26;;;;;;;2.78;1.90;;;6.20;60.40;;;;;;5071940;28;20033;-70
2024/02/22 06:35:52;;;;;;;2.88;1.25;;;6.30;61.40;;;;;;5070105;28;20531;-73
2024/02/22 06:38:18;;;;;;;3.83;1.80;;;6.40;60.70;;;;;;5071590;28;20498;-71
2024/02/22 06:41:03;;;;;;;3.90;2.63;;;6.40;60.80;;;;;;5069656;28;20489;-73
2024/02/22 06:43:29;;;;;;;5.63;2.55;;;6.50;61.40;;;;;;5071673;28;20041;-71
2024/02/22 06:45:55;;;;;;;3.30;1.58;;;6.50;61.10;;;;;;5071210;28;20440;-71
2024/02/22 06:48:21;;;;;;;7.18;1.30;;;6.50;61.10;;;;;;5070515;28;20045;-71
2024/02/22 06:50:47;;;;;;;2.53;1.30;;;6.50;61.00;;;;;;5069474;28;20071;-70
2024/02/22 06:53:13;;;;;;;3.42;2.03;;;6.60;60.80;;;;;;5070234;28;20489;-73
2024/02/22 06:55:39;;;;;;;7.28;3.00;;;6.60;60.60;;;;;;5070112;28;20041;-71
2024/02/22 06:58:06;;;;;;;4.93;3.22;;;6.70;60.50;;;;;;5071309;28;20033;-73
2024/02/22 07:03:16;;;;;;;3.85;1.95;;;6.60;60.80;;;;;;5069644;28;20098;-73
2024/02/22 07:05:43;;;;;;;2.63;1.98;;;6.70;60.80;;;;;;5071140;28;20459;-73
2024/02/22 07:08:09;;;;;;;;;;;6.70;60.80;;;;;;5070741;28;20060;-71
2024/02/22 07:10:35;;;;;;;2.55;1.65;;;6.80;61.10;;;;;;5070524;28;19922;-73
2024/02/22 07:13:01;;;;;;;4.32;1.92;;;6.70;61.50;;;;;;5071187;28;20048;-73
2024/02/22 07:15:27;;;;;;;2.35;1.50;;;6.70;62.60;;;;;;5071004;28;20033;-73
2024/02/22 07:17:53;;;;;;;2.08;0.98;;;6.80;63.40;;;;;;5071503;28;20044;-73
2024/02/22 07:20:19;;;;;;;1.58;0.95;;;6.90;63.90;;;;;;5069422;28;20547;-73
2024/02/22 07:22:47;;;;;;;1.63;1.00;;;6.90;63.60;;;;;;5071215;28;20029;-71
2024/02/22 07:25:14;;;;;;;1.65;1.08;;;7.00;62.80;;;;;;5069294;28;20127;-73
2024/02/22 07:27:40;;;;;;;2.65;1.52;;;7.10;62.40;;;;;;5070022;28;20039;-71
2024/02/22 07:30:08;;;;;;;1.58;0.68;;;7.20;61.60;;;;;;5069112;28;20555;-70
2024/02/22 07:32:35;;;;;;;1.13;0.60;;;7.30;61.00;;;;;;5053041;28;20055;-73
2024/02/22 07:35:02;;;;;;;;;;;7.50;61.00;;;;;;5071488;28;20055;-73
2024/02/22 07:37:28;;;;;;;;;;;7.60;60.30;;;;;;5071496;28;19920;-73
2024/02/22 07:39:54;;;;;;;0.77;0.75;;;7.80;61.50;;;;;;5070727;28;20309;-70
2024/02/22 07:42:20;;;;;;;;;;;7.90;61.60;;;;;;5071050;28;20123;-70
2024/02/22 07:44:46;;;;;;;1.58;0.75;;;8.10;60.80;;;;;;5069569;28;19926;-71
2024/02/22 07:47:12;;;;;;;2.58;1.27;;;8.40;59.40;;;;;;5069575;28;20118;-73
2024/02/22 07:49:38;;;;;;;2.60;1.02;;;8.70;59.50;;;;;;5069438;28;20039;-73
2024/02/22 07:52:06;;;;;;;4.53;1.88;;;9.10;60.90;;;;;;5070280;28;20041;-70
2024/02/22 07:54:32;;;;;;;1.05;0.73;;;9.40;59.50;;;;;;5070862;28;20499;-73
2024/02/22 07:56:58;;;;;;;1.95;0.55;;;9.70;60.10;;;;;;5069359;28;20120;-70
2024/02/22 07:59:24;;;;;;;0.52;0.40;;;9.90;56.40;;;;;;5069211;28;20032;-73
2024/02/22 08:01:50;;;;;;;0.20;0.20;;;10.10;54.00;;;;;;5068760;28;20051;-70
2024/02/22 08:04:16;;;;;;;0.75;0.25;;;10.30;53.40;;;;;;5069071;28;20045;-70
2024/02/22 08:06:43;;;;;;;1.13;0.25;;;10.40;49.90;;;;;;5070677;28;20044;-73
2024/02/22 08:09:09;;;;;;;0.45;0.30;;;10.50;50.20;;;;;;5070550;28;20056;-70
2024/02/22 08:11:35;;;;;;;0.20;0.20;;;10.60;48.70;;;;;;5068801;28;20037;-73
2024/02/22 08:14:01;;;;;;;0.25;0.25;;;10.70;50.00;;;;;;5052558;28;20489;-70
2024/02/22 08:16:27;;;;;;;1.15;0.43;;;10.80;47.10;;;;;;5071077;28;20062;-70
2024/02/22 08:18:54;;;;;;;1.17;0.73;;;11.10;47.40;;;;;;5074101;28;20109;-70
2024/02/22 08:21:20;;;;;;;;;;;11.20;45.90;;;;;;5072748;28;20037;-73
2024/02/22 08:23:51;;;;;;;0.25;0.13;;;11.40;45.80;;;;;;5074100;28;20384;-73
2024/02/22 08:26:19;;;;;;;1.10;0.50;;;11.60;44.10;;;;;;5073760;28;20093;-73
2024/02/22 08:28:45;;;;;;;0.98;0.57;;;11.60;43.10;;;;;;5072350;28;20047;-70
2024/02/22 08:31:11;;;;;;;;;;;11.90;44.30;;;;;;5072556;28;20047;-70
2024/02/22 08:33:37;;;;;;;0.93;0.40;;;12.00;44.00;;;;;;5074202;28;20007;-73
2024/02/22 08:36:03;;;;;;;;;;;12.00;42.60;;;;;;5073110;28;20036;-70
2024/02/22 08:38:30;;;;;;;0.43;0.30;;;12.10;43.50;;;;;;5055978;28;19916;-73
2024/02/22 08:40:56;;;;;;;1.65;1.10;;;12.20;43.60;;;;;;5071614;28;20127;-73
2024/02/22 08:43:22;;;;;;;0.65;0.65;;;12.30;44.80;;;;;;5072598;28;20037;-73
2024/02/22 08:45:49;;;;;;;0.90;0.22;;;12.40;44.00;;;;;;5073392;28;20032;-73
2024/02/22 08:48:15;;;;;;;1.27;0.73;;;12.50;43.30;;;;;;5072569;28;20154;-70
2024/02/22 08:50:42;;;;;;;2.17;1.83;;;12.60;42.60;;;;;;5071760;28;20033;-73
2024/02/22 08:53:08;;;;;;;0.93;0.55;;;12.80;42.30;;;;;;5073813;28;20086;-71
2024/02/22 08:55:34;;;;;;;1.25;0.45;;;13.30;42.60;;;;;;5072159;28;20037;-73
2024/02/22 08:58:01;;;;;;;0.75;0.57;;;13.60;39.70;;;;;;5055558;28;20032;-71
2024/02/22 09:00:27;;;;;;;6.88;1.33;;;14.20;41.20;;;;;;5071607;28;20044;-70
2024/02/22 09:02:53;;;;;;;0.52;0.40;;;15.40;37.60;;;;;;5073382;28;20048;-73
2024/02/22 09:05:19;;;;;;;0.25;0.15;;;15.80;36.20;;;;;;5071769;28;20024;-73
2024/02/22 09:07:47;;;;;;;0.98;0.43;;;15.70;36.40;;;;;;5072159;28;20033;-72
2024/02/22 09:10:15;;;;;;;2.25;1.48;;;15.60;37.10;;;;;;5072353;28;20044;-70
2024/02/22 09:12:43;;;;;;;0.85;0.30;;;15.30;37.00;;;;;;5073389;28;20032;-72
2024/02/22 09:15:11;;;;;;;0.15;0.15;;;15.10;38.30;;;;;;5072983;28;20111;-73
2024/02/22 09:17:37;;;;;;;0.20;0.20;;;15.00;37.10;;;;;;5071697;28;20029;-70
2024/02/22 09:20:05;;;;;;;0.10;0.10;;;15.00;38.30;;;;;;5071073;28;20028;-70
2024/02/22 09:22:31;;;;;;;0.55;0.52;;;14.90;38.70;;;;;;5071639;28;20042;-72
2024/02/22 09:24:57;;;;;;;1.33;0.38;;;14.90;37.90;;;;;;5071595;28;20490;-70
2024/02/22 09:27:23;;;;;;;0.32;0.28;;;14.90;38.10;;;;;;5071092;28;20537;-73
2024/02/22 09:29:49;;;;;;;0.43;0.20;;;14.80;38.50;;;;;;5073168;28;20047;-72
2024/02/22 09:32:15;;;;;;;0.35;0.20;;;14.90;38.80;;;;;;5070803;28;20344;-71
2024/02/22 09:34:41;;;;;;;0.15;0.15;;;15.00;37.60;;;;;;5071484;28;20497;-71
2024/02/22 09:37:07;;;;;;;0.20;0.20;;;15.40;37.00;;;;;;5071433;28;20044;-73
2024/02/22 09:39:35;;;;;;;0.20;0.20;;;15.90;36.20;;;;;;5071281;28;20044;-70
2024/02/22 09:42:01;;;;;;;0.10;0.10;;;16.50;36.10;;;;;;5072361;28;20069;-73
2024/02/22 09:44:28;;;;;;;0.60;0.40;;;16.60;34.70;;;;;;5070905;28;20044;-70
2024/02/22 09:46:55;;;;;;;0.17;0.13;;;16.50;34.50;;;;;;5070980;28;20107;-73
2024/02/22 09:49:22;;;;;;;0.40;0.40;;;16.20;34.10;;;;;;5071390;28;20062;-73
2024/02/22 09:52:08;;;;;;;0.55;0.55;;;16.10;34.80;;;;;;5070547;28;20485;-71
2024/02/22 09:54:34;;;;;;;0.55;0.30;;;16.10;33.90;;;;;;5072309;28;20029;-73
2024/02/22 09:57:00;;;;;;;0.10;0.10;;;16.10;35.10;;;;;;5071031;28;20036;-71
2024/02/22 09:59:26;;;;;;;3.65;1.15;;;16.30;36.10;;;;;;5054356;28;20406;-71
2024/02/22 10:01:56;;;;;;;1.55;0.35;;;16.30;35.90;;;;;;5071651;28;20106;-73
2024/02/22 10:07:08;;;;;;;0.20;0.20;;;16.10;34.80;;;;;;5071055;28;20048;-73
2024/02/22 10:12:46;;;;;;;0.32;0.30;;;15.60;35.50;;;;;;5070384;28;20111;-73
2024/02/22 10:15:27;;;;;;;0.10;0.10;;;15.40;35.20;;;;;;5070608;28;20020;-70
2024/02/22 10:17:53;;;;;;;0.63;0.52;;;15.20;35.90;;;;;;5070878;28;20041;-72
2024/02/22 10:20:19;;;;;;;;;;;15.20;37.30;;;;;;5071982;28;20024;-73
2024/02/22 10:22:46;;;;;;;0.40;0.32;;;15.20;37.10;;;;;;5070673;28;19963;-71
2024/02/22 10:25:32;;;;;;;0.70;0.60;;;15.10;37.30;;;;;;5071585;28;20025;-70
2024/02/22 10:27:59;;;;;;;1.58;0.65;;;15.00;37.10;;;;;;5070545;28;20033;-73
2024/02/22 10:30:27;;;;;;;0.38;0.30;;;14.90;37.90;;;;;;5069761;28;20036;-72
2024/02/22 10:32:56;;;;;;;0.10;0.10;;;14.80;37.70;;;;;;5070429;28;20039;-73
2024/02/22 10:35:24;;;;;;;0.32;0.30;;;14.80;37.50;;;;;;5071625;28;20377;-73
2024/02/22 10:37:53;;;;;;;0.65;0.65;;;14.80;37.80;;;;;;5071444;28;20123;-71
2024/02/22 10:40:20;;;;;;;0.15;0.15;;;14.70;38.40;;;;;;5069242;28;20021;-71
2024/02/22 10:42:50;;;;;;;0.00;0.00;;;14.60;38.50;;;;;;5070092;28;20082;-70
2024/02/22 10:45:16;;;;;;;0.20;0.20;;;14.60;38.80;;;;;;5070066;28;20037;-70
2024/02/22 10:47:45;;;;;;;1.52;0.88;;;14.50;38.10;;;;;;5070379;28;20047;-70
2024/02/22 10:50:18;;;;;;;9.95;0.47;;;14.50;39.20;;;;;;5069499;28;20056;-72
2024/02/22 10:52:46;;;;;;;0.10;0.10;;;14.40;38.80;;;;;;5071823;28;20046;-73
2024/02/22 10:55:15;;;;;;;0.75;0.55;;;14.40;39.30;;;;;;5071145;28;20028;-72
2024/02/22 10:57:47;;;;;;;0.35;0.20;;;14.40;39.30;;;;;;5070252;28;20048;-71
2024/02/22 11:00:14;;;;;;;0.10;0.10;;;14.40;39.40;;;;;;5069386;28;20032;-72
2024/02/22 11:02:43;;;;;;;1.75;0.95;;;14.30;39.40;;;;;;5070231;28;20037;-70
2024/02/22 11:05:11;;;;;;;1.77;1.08;;;14.20;39.70;;;;;;5069645;28;20516;-70
2024/02/22 11:07:58;;;;;;;0.20;0.10;;;14.20;40.20;;;;;;5070049;28;20037;-73
2024/02/22 11:10:24;;;;;;;0.10;0.10;;;14.10;39.80;;;;;;5069419;28;20436;-72
2024/02/22 11:12:51;;;;;;;1.00;0.30;;;14.00;39.80;;;;;;5070053;28;20453;-70
2024/02/22 11:15:17;;;;;;;0.43;0.28;;;14.00;39.20;;;;;;5069685;28;20047;-73
2024/02/22 11:18:03;;;;;;;;;;;13.90;40.40;;;;;;5070470;28;20044;-70
2024/02/22 11:20:47;;;;;;;0.10;0.10;;;13.90;40.80;;;;;;5069081;28;19924;-71
2024/02/22 11:23:14;;;;;;;0.35;0.30;;;13.90;39.80;;;;;;5069918;28;20551;-73
2024/02/22 11:25:41;;;;;;;0.45;0.38;;;13.80;41.00;;;;;;5069713;28;20502;-72
2024/02/22 11:28:09;;;;;;;0.20;0.20;;;13.70;40.00;;;;;;5053111;28;20040;-72
2024/02/22 11:30:36;;;;;;;0.10;0.10;;;13.80;40.10;;;;;;5052271;28;20037;-69
2024/02/22 11:33:02;;;;;;;0.10;0.10;;;13.70;40.90;;;;;;5069822;28;20447;-73
2024/02/22 11:35:28;;;;;;;;;;;13.80;40.20;;;;;;5071320;28;20501;-73
2024/02/22 11:38:03;;;;;;;0.38;0.38;;;13.70;39.80;;;;;;5069520;28;19920;-70
2024/02/22 11:40:30;;;;;;;0.40;0.30;;;13.70;40.70;;;;;;5068978;28;20028;-72
2024/02/22 11:42:58;;;;;;;0.30;0.30;;;13.70;40.30;;;;;;5071095;28;20041;-70
2024/02/22 11:45:25;;;;;;;1.30;0.73;;;13.70;40.40;;;;;;5069410;28;20059;-70
2024/02/22 11:47:51;;;;;;;0.35;0.35;;;13.70;40.80;;;;;;5069662;28;20074;-70
2024/02/22 11:50:17;;;;;;;;;;;13.70;40.30;;;;;;5072544;28;20039;-70
2024/02/22 11:53:03;;;;;;;0.13;0.10;;;13.80;40.10;;;;;;5056798;28;19947;-72
2024/02/22 11:55:29;;;;;;;0.20;0.20;;;13.80;40.90;;;;;;5072970;28;20039;-73
2024/02/22 11:57:56;;;;;;;0.30;0.28;;;13.90;40.70;;;;;;5074643;28;20425;-70
2024/02/22 12:00:22;;;;;;;0.10;0.10;;;13.80;40.10;;;;;;5073886;28;20575;-73
2024/02/22 12:02:48;;;;;;;0.10;0.10;;;13.80;40.20;;;;;;5074624;28;20036;-71
2024/02/22 12:05:17;;;;;;;0.20;0.20;;;13.90;40.70;;;;;;5072980;28;20048;-73
2024/02/22 12:07:43;;;;;;;0.45;0.40;;;13.90;40.70;;;;;;5073319;28;20033;-70
2024/02/22 12:10:10;;;;;;;0.20;0.20;;;13.90;40.10;;;;;;5072641;28;20025;-70
2024/02/22 12:12:39;;;;;;;0.03;0.03;;;13.90;40.50;;;;;;5074551;28;20041;-71
2024/02/22 12:15:06;;;;;;;0.28;0.10;;;13.80;40.80;;;;;;5072866;28;20028;-72
2024/02/22 12:17:34;;;;;;;0.10;0.10;;;13.90;40.60;;;;;;5074358;28;20140;-70
2024/02/22 12:20:01;;;;;;;0.40;0.40;;;13.80;41.30;;;;;;5072783;28;20060;-72
2024/02/22 12:25:13;;;;;;;1.27;0.43;;;13.60;44.50;;;;;;5072832;28;20039;-70
2024/02/22 12:27:40;;;;;;;0.47;0.20;;;13.50;46.00;;;;;;5072588;28;20045;-71
2024/02/22 12:30:08;;;;;;;0.15;0.08;;;13.30;47.90;;;;;;5055402;28;20052;-72
2024/02/22 12:32:34;;;;;;;0.17;0.17;;;13.10;49.00;;;;;;5074225;28;20471;-70
2024/02/22 12:35:00;;;;;;;0.65;0.35;;;12.90;51.90;;;;;;5072575;28;20028;-70
2024/02/22 12:37:27;;;;;;;1.20;0.70;;;12.80;52.00;;;;;;5072542;28;20044;-70
2024/02/22 12:39:53;;;;;;;0.95;0.77;;;12.80;52.60;;;;;;5072362;28;20036;-70
2024/02/22 12:42:20;;;;;;;3.42;1.25;;;12.70;52.20;;;;;;5071641;28;20040;-70
2024/02/22 12:44:46;;;;;;;0.17;0.17;;;12.80;52.10;;;;;;5073709;28;20379;-72
2024/02/22 12:47:12;;;;;;;0.10;0.10;;;12.70;53.50;;;;;;5072326;28;20040;-73
2024/02/22 12:49:39;;;;;;;0.73;0.73;;;12.60;53.60;;;;;;5072349;28;20036;-70
2024/02/22 12:52:06;;;;;;;0.80;0.40;;;12.30;55.40;;;;;;5071682;28;20552;-73
2024/02/22 12:54:33;;;;;;;0.98;0.50;;;12.10;55.20;;;;;;5072344;28;20032;-70
2024/02/22 12:57:00;;;;;;;1.63;0.57;;;12.20;55.60;;;;;;5073447;28;20056;-70
2024/02/22 12:59:26;;;;;;;0.63;0.40;;;12.20;53.60;;;;;;5073153;28;20062;-73
2024/02/22 13:01:52;;;;;;;0.88;0.30;;;12.40;54.10;;;;;;5070787;28;20059;-72
2024/02/22 13:04:18;;;;;;;0.43;0.25;;;12.40;53.70;;;;;;5072989;28;20044;-70
2024/02/22 13:06:46;;;;;;;;;;;12.50;53.10;;;;;;5072620;28;20092;-70
2024/02/22 13:09:12;;;;;;;;;;;12.50;52.40;;;;;;5056105;28;20281;-70
2024/02/22 13:11:38;;;;;;;3.50;1.40;;;12.50;52.80;;;;;;5054690;28;19934;-73
2024/02/22 13:14:04;;;;;;;0.52;0.45;;;12.50;52.40;;;;;;5072910;28;20036;-70